Time;durP1;ratioP1;P1;durP2;ratioP2;P2;SDS_P1;SDS_P2;PMS_P1;PMS_P2;Temp;Humidity;BMP_temperature;BMP_pressure;BME280_temperature;BME280_humidity;BME280_pressure;Samples;Min_cycle;Max_cycle;Signal;HPM_P1;HPM_P2
2023/05/21 00:00:11;;;;;;;5.07;4.47;;;;;;;13.20;86.25;101780.34;5034734;28;20053;-71
2023/05/21 00:02:37;;;;;;;6.95;4.85;;;;;;;13.15;86.22;101783.06;5034103;28;20036;-71
2023/05/21 00:05:03;;;;;;;6.30;4.80;;;;;;;13.16;87.31;101783.94;5038456;28;20037;-71
2023/05/21 00:07:30;;;;;;;6.78;4.97;;;;;;;13.14;87.52;101776.09;5034156;28;20017;-71
2023/05/21 00:09:55;;;;;;;6.35;4.57;;;;;;;13.08;87.72;101769.22;5032925;28;20164;-71
2023/05/21 00:12:21;;;;;;;6.93;5.13;;;;;;;13.06;88.36;101768.38;5034980;28;20021;-71
2023/05/21 00:14:46;;;;;;;6.38;5.40;;;;;;;13.03;88.63;101773.69;5032184;28;20527;-71
2023/05/21 00:17:11;;;;;;;5.97;5.05;;;;;;;12.98;89.38;101767.69;5041369;28;20030;-71
2023/05/21 00:19:38;;;;;;;6.47;5.43;;;;;;;12.93;89.40;101771.28;5042707;28;20534;-71
2023/05/21 00:22:04;;;;;;;6.00;5.03;;;;;;;12.85;89.91;101763.53;5043602;28;20021;-71
2023/05/21 00:24:29;;;;;;;7.07;5.32;;;;;;;12.83;90.51;101760.97;5033742;28;20021;-71
2023/05/21 00:26:55;;;;;;;5.75;5.22;;;;;;;12.82;90.75;101758.41;5037570;28;20040;-71
2023/05/21 00:29:21;;;;;;;8.52;4.95;;;;;;;12.77;91.10;101768.91;5034046;28;20026;-70
2023/05/21 00:31:46;;;;;;;6.38;5.03;;;;;;;12.63;91.24;101755.22;5034061;28;20091;-71
2023/05/21 00:34:12;;;;;;;8.25;5.30;;;;;;;12.64;91.95;101751.72;5037525;28;20034;-71
2023/05/21 00:36:39;;;;;;;8.13;5.35;;;;;;;12.68;93.22;101760.38;5052405;28;20035;-71
2023/05/21 00:39:04;;;;;;;8.85;5.97;;;;;;;12.63;93.15;101757.84;5033205;28;20017;-71
2023/05/21 00:41:30;;;;;;;7.70;6.00;;;;;;;12.56;93.62;101751.00;5034921;28;20087;-71
2023/05/21 00:43:56;;;;;;;11.20;7.22;;;;;;;12.56;92.90;101753.63;5031777;28;20021;-74
2023/05/21 00:46:21;;;;;;;10.63;7.82;;;;;;;12.56;93.89;101758.84;5033658;28;20021;-71
2023/05/21 00:48:48;;;;;;;12.88;8.90;;;;;;;12.54;94.46;101758.00;5033743;28;20029;-71
2023/05/21 00:51:14;;;;;;;12.40;10.02;;;;;;;12.50;94.70;101753.72;5032985;28;20025;-71
2023/05/21 00:53:40;;;;;;;12.60;9.25;;;;;;;12.52;95.14;101755.41;5033073;28;20022;-71
2023/05/21 00:56:06;;;;;;;13.52;11.23;;;;;;;12.50;95.02;101754.56;5036555;28;20484;-71
2023/05/21 00:58:32;;;;;;;16.55;11.52;;;;;;;12.51;95.20;101758.06;5031651;28;20039;-71
2023/05/21 01:01:02;;;;;;;12.40;11.07;;;;;;;12.41;95.65;101747.75;5033116;28;20033;-71
2023/05/21 01:03:29;;;;;;;11.50;9.88;;;;;;;12.42;96.34;101756.44;5042699;28;20033;-71
2023/05/21 01:05:58;;;;;;;15.73;10.38;;;;;;;12.39;96.20;101757.38;5036479;28;20379;-71
2023/05/21 01:08:26;;;;;;;12.18;9.50;;;;;;;12.37;97.04;101745.22;5035680;28;20013;-71
2023/05/21 01:10:52;;;;;;;11.52;9.07;;;;;;;12.34;97.07;101747.88;5033834;28;20469;-71
2023/05/21 01:13:21;;;;;;;10.75;9.00;;;;;;;12.33;97.58;101749.63;5035674;28;20392;-71
2023/05/21 01:15:48;;;;;;;10.80;7.75;;;;;;;12.31;97.46;101745.31;5033074;28;20465;-71
2023/05/21 01:18:14;;;;;;;10.75;7.40;;;;;;;12.29;96.96;101745.31;5033101;28;20025;-71
2023/05/21 01:20:41;;;;;;;8.68;6.82;;;;;;;12.29;97.13;101745.31;5032065;28;20022;-71
2023/05/21 01:23:07;;;;;;;8.57;7.00;;;;;;;12.24;97.40;101738.47;5033167;28;20021;-71
2023/05/21 01:25:33;;;;;;;7.22;6.47;;;;;;;12.27;97.76;101747.09;5041596;28;20056;-71
2023/05/21 01:27:59;;;;;;;8.80;6.47;;;;;;;12.26;98.53;101747.13;5042111;28;20029;-71
2023/05/21 01:30:24;;;;;;;7.72;6.22;;;;;;;12.24;97.96;101749.78;5033056;28;20033;-71
2023/05/21 01:32:55;;;;;;;8.45;6.13;;;;;;;12.22;97.75;101751.53;5031557;28;20025;-71
2023/05/21 01:35:26;;;;;;;8.35;6.35;;;;;;;12.17;98.84;101748.16;5033186;28;20025;-70
2023/05/21 01:37:58;;;;;;;8.63;6.93;;;;;;;12.10;98.96;101741.28;5030942;28;20029;-71
2023/05/21 01:40:38;;;;;;;10.70;6.32;;;;;;;12.16;99.02;101747.28;5041100;28;20021;-70
2023/05/21 01:43:07;;;;;;;9.73;6.63;;;;;;;12.10;99.39;101746.53;5033958;28;20477;-70
2023/05/21 01:45:35;;;;;;;9.82;6.63;;;;;;;12.08;99.54;101746.53;5032453;28;20516;-71
2023/05/21 01:48:05;;;;;;;9.30;6.53;;;;;;;12.01;99.07;101741.44;5031875;28;20018;-71
2023/05/21 01:50:31;;;;;;;7.00;6.30;;;;;;;12.00;99.62;101734.44;5032209;28;20060;-71
2023/05/21 01:52:57;;;;;;;8.18;6.35;;;;;;;12.04;100.00;101741.38;5031827;28;20025;-71
2023/05/21 01:55:23;;;;;;;8.88;6.50;;;;;;;12.05;100.00;101748.31;5023842;28;20060;-70
2023/05/21 01:57:53;;;;;;;7.30;6.28;;;;;;;12.06;100.00;101743.06;5033385;28;20032;-70
2023/05/21 02:00:20;;;;;;;8.50;6.18;;;;;;;12.07;100.00;101736.13;5034266;28;20164;-71
2023/05/21 02:02:46;;;;;;;8.43;6.03;;;;;;;12.09;100.00;101734.31;5026081;28;20030;-70
2023/05/21 02:05:11;;;;;;;7.53;6.15;;;;;;;12.13;100.00;101730.75;5032402;28;20033;-70
2023/05/21 02:07:37;;;;;;;7.28;5.90;;;;;;;12.20;100.00;101724.56;5032542;28;20021;-70
2023/05/21 02:10:02;;;;;;;7.70;5.93;;;;;;;12.26;100.00;101731.44;5022828;28;20036;-71
2023/05/21 02:12:28;;;;;;;7.40;6.63;;;;;;;12.24;99.74;101721.00;5041837;28;20032;-71
2023/05/21 02:14:55;;;;;;;9.88;5.75;;;;;;;12.33;99.76;101727.84;5034273;28;20056;-71
2023/05/21 02:17:20;;;;;;;7.68;5.80;;;;;;;12.38;99.66;101729.47;5031869;28;20025;-71
2023/05/21 02:19:46;;;;;;;8.45;6.00;;;;;;;12.39;99.24;101728.63;5032787;28;20026;-71
2023/05/21 02:22:11;;;;;;;8.30;6.05;;;;;;;12.47;99.19;101727.63;5037860;28;20523;-71
2023/05/21 02:24:36;;;;;;;9.63;6.20;;;;;;;12.46;98.78;101731.09;5031662;28;20030;-71
2023/05/21 02:27:02;;;;;;;7.78;5.65;;;;;;;12.44;99.18;101727.66;5037032;28;20036;-71
2023/05/21 02:29:27;;;;;;;7.60;5.95;;;;;;;12.39;99.22;101723.38;5031515;28;20037;-71
2023/05/21 02:31:53;;;;;;;7.05;5.90;;;;;;;12.37;99.63;101722.53;5032777;28;20025;-71
2023/05/21 02:34:20;;;;;;;7.75;6.10;;;;;;;12.39;100.00;101725.09;5034962;28;20025;-71
2023/05/21 02:36:47;;;;;;;7.72;6.22;;;;;;;12.38;99.82;101729.47;5031280;28;20104;-71
2023/05/21 02:39:14;;;;;;;8.13;5.70;;;;;;;12.40;100.00;101732.09;5032208;28;20038;-71
2023/05/21 02:41:39;;;;;;;7.30;5.93;;;;;;;12.39;100.00;101723.38;5032317;28;20031;-71
2023/05/21 02:44:04;;;;;;;11.60;5.93;;;;;;;12.48;99.90;101718.88;5031042;28;20030;-72
2023/05/21 02:46:30;;;;;;;9.07;5.63;;;;;;;12.53;99.83;101722.28;5032528;28;20025;-72
2023/05/21 02:48:55;;;;;;;7.75;6.22;;;;;;;12.50;99.86;101719.72;5032091;28;20460;-71
2023/05/21 02:51:21;;;;;;;7.85;6.00;;;;;;;12.53;98.98;101722.28;5031125;28;20026;-71
2023/05/21 02:53:46;;;;;;;6.53;5.90;;;;;;;12.51;99.15;101717.06;5049646;28;20048;-72
2023/05/21 02:56:12;;;;;;;9.88;6.10;;;;;;;12.53;99.46;101710.06;5046812;28;20056;-71
2023/05/21 02:58:37;;;;;;;6.63;5.95;;;;;;;12.54;99.73;101713.53;5042543;28;20037;-71
2023/05/21 03:01:02;;;;;;;9.10;6.20;;;;;;;12.52;99.40;101707.47;5035884;28;20030;-71
2023/05/21 03:03:28;;;;;;;7.63;6.03;;;;;;;12.51;99.09;101716.19;5031273;28;20033;-71
2023/05/21 03:05:53;;;;;;;7.43;6.68;;;;;;;12.51;99.43;101713.59;5030191;28;20362;-71
2023/05/21 03:08:19;;;;;;;9.05;6.80;;;;;;;12.48;99.72;101700.56;5050390;28;20032;-71
2023/05/21 03:10:44;;;;;;;9.48;5.85;;;;;;;12.38;100.00;101690.25;5047513;28;20391;-71
2023/05/21 03:13:09;;;;;;;7.25;6.00;;;;;;;12.36;100.00;101702.50;5029774;28;20029;-72
2023/05/21 03:15:35;;;;;;;8.35;6.40;;;;;;;12.30;100.00;101700.00;5035934;28;20033;-71
2023/05/21 03:18:00;;;;;;;8.98;6.68;;;;;;;12.28;100.00;101699.16;5034104;28;20392;-72
2023/05/21 03:20:26;;;;;;;9.25;6.43;;;;;;;12.27;100.00;101692.22;5042170;28;20044;-71
2023/05/21 03:22:53;;;;;;;9.02;6.43;;;;;;;12.29;100.00;101694.78;5042156;28;20029;-72
2023/05/21 03:25:20;;;;;;;9.23;5.97;;;;;;;12.24;100.00;101692.25;5037684;28;20017;-72
2023/05/21 03:27:45;;;;;;;10.20;6.05;;;;;;;12.28;100.00;101699.16;5034780;28;20034;-71
2023/05/21 03:30:11;;;;;;;11.07;6.53;;;;;;;12.21;100.00;101684.47;5034429;28;20052;-72
2023/05/21 03:32:37;;;;;;;7.60;6.45;;;;;;;12.23;100.00;101692.25;5041318;28;20041;-71
2023/05/21 03:35:04;;;;;;;9.13;6.30;;;;;;;12.22;100.00;101694.03;5038039;28;20484;-71
2023/05/21 03:37:29;;;;;;;9.68;6.75;;;;;;;12.20;100.00;101695.81;5037071;28;20048;-71
2023/05/21 03:39:54;;;;;;;9.57;6.47;;;;;;;12.21;100.00;101702.75;5038362;28;20472;-71
2023/05/21 03:42:20;;;;;;;8.77;6.28;;;;;;;12.27;100.00;101699.19;5041232;28;20045;-72
2023/05/21 03:44:45;;;;;;;9.32;6.90;;;;;;;12.23;100.00;101681.81;5033790;28;20034;-72
2023/05/21 03:47:10;;;;;;;9.70;6.63;;;;;;;12.30;100.00;101705.22;5035050;28;20112;-71
2023/05/21 03:49:35;;;;;;;10.02;6.80;;;;;;;12.27;100.00;101684.38;5039323;28;20013;-71
2023/05/21 03:52:01;;;;;;;7.40;6.68;;;;;;;12.36;100.00;101699.91;5051951;28;20032;-71
2023/05/21 03:54:26;;;;;;;8.68;6.32;;;;;;;12.37;100.00;101692.91;5033640;28;20036;-71
2023/05/21 03:56:51;;;;;;;10.70;6.40;;;;;;;12.44;100.00;101694.53;5032128;28;20057;-71
2023/05/21 03:59:17;;;;;;;11.23;6.85;;;;;;;12.46;100.00;101684.91;5034732;28;20017;-71
2023/05/21 04:01:42;;;;;;;8.27;6.63;;;;;;;12.45;100.00;101683.16;5036782;28;20040;-72
2023/05/21 04:04:07;;;;;;;8.77;6.78;;;;;;;12.45;100.00;101687.53;5035718;28;20447;-71
2023/05/21 04:06:33;;;;;;;8.93;6.65;;;;;;;12.47;100.00;101693.63;5034519;28;20037;-71
2023/05/21 04:08:58;;;;;;;8.15;6.40;;;;;;;12.41;100.00;101687.59;5035796;28;20037;-71
2023/05/21 04:11:23;;;;;;;8.85;6.85;;;;;;;12.31;100.00;101680.81;5033236;28;20033;-71
2023/05/21 04:13:48;;;;;;;7.93;6.72;;;;;;;12.43;100.00;101691.94;5034653;28;20072;-72
2023/05/21 04:16:17;;;;;;;7.38;6.53;;;;;;;12.30;100.00;101679.09;5033045;28;20466;-71
2023/05/21 04:18:43;;;;;;;8.90;7.10;;;;;;;12.38;100.00;101703.34;5034462;28;20017;-72
2023/05/21 04:21:08;;;;;;;7.78;6.90;;;;;;;12.26;100.00;101677.41;5034254;28;20503;-71
2023/05/21 04:23:36;;;;;;;8.10;6.60;;;;;;;12.35;100.00;101692.06;5033580;28;20033;-71
2023/05/21 04:26:02;;;;;;;7.97;6.63;;;;;;;12.37;100.00;101698.16;5033824;28;20480;-71
2023/05/21 04:28:27;;;;;;;10.13;6.55;;;;;;;12.44;100.00;101706.75;5043388;28;20074;-71
2023/05/21 04:30:53;;;;;;;9.27;6.82;;;;;;;12.42;100.00;101704.13;5034196;28;20071;-71
2023/05/21 04:33:19;;;;;;;8.50;6.90;;;;;;;12.41;100.00;101697.19;5033416;28;20025;-71
2023/05/21 04:35:49;;;;;;;9.77;7.30;;;;;;;12.49;100.00;101704.88;5036995;28;20544;-72
2023/05/21 04:38:18;;;;;;;10.02;7.32;;;;;;;12.48;100.00;101704.03;5034025;28;20029;-71
2023/05/21 04:40:44;;;;;;;7.85;6.57;;;;;;;12.45;100.00;101700.63;5042751;28;20043;-71
2023/05/21 04:43:10;;;;;;;7.90;6.60;;;;;;;12.50;100.00;101699.66;5038313;28;20032;-71
2023/05/21 04:45:35;;;;;;;10.15;7.38;;;;;;;12.49;100.00;101699.66;5038546;28;20119;-71
2023/05/21 04:48:01;;;;;;;10.73;7.68;;;;;;;12.56;100.00;101707.41;5033692;28;20056;-71
2023/05/21 04:50:29;;;;;;;12.32;7.55;;;;;;;12.58;100.00;101708.22;5032306;28;20025;-71
2023/05/21 04:52:54;;;;;;;8.40;7.22;;;;;;;12.62;100.00;101711.63;5033708;28;20026;-71
2023/05/21 04:55:20;;;;;;;10.80;6.93;;;;;;;12.53;100.00;101688.28;5044353;28;20186;-71
2023/05/21 04:57:45;;;;;;;9.50;7.38;;;;;;;12.64;100.00;101710.72;5033838;28;20024;-71
2023/05/21 05:00:11;;;;;;;10.18;8.48;;;;;;;12.66;100.00;101718.56;5033541;28;20017;-71
2023/05/21 05:02:36;;;;;;;9.15;7.43;;;;;;;12.64;100.00;101715.09;5033697;28;20370;-71
2023/05/21 05:05:02;;;;;;;10.52;7.20;;;;;;;12.70;100.00;101709.75;5032364;28;20457;-71
2023/05/21 05:07:27;;;;;;;10.05;7.50;;;;;;;12.71;100.00;101708.00;5033558;28;20029;-71
2023/05/21 05:09:52;;;;;;;8.65;7.00;;;;;;;12.76;100.00;101714.03;5036929;28;20437;-71
2023/05/21 05:12:17;;;;;;;8.80;7.13;;;;;;;12.78;100.00;101710.44;5045749;28;20075;-71
2023/05/21 05:14:43;;;;;;;8.80;7.90;;;;;;;12.84;100.00;101709.50;5034127;28;20044;-71
2023/05/21 05:17:09;;;;;;;9.13;7.57;;;;;;;12.89;100.00;101710.28;5037000;28;20104;-72
2023/05/21 05:19:35;;;;;;;8.70;7.80;;;;;;;12.94;100.00;101694.47;5034973;28;20033;-71
2023/05/21 05:22:00;;;;;;;10.57;7.68;;;;;;;13.01;100.00;101706.53;5035527;28;20045;-71
2023/05/21 05:24:25;;;;;;;11.10;7.88;;;;;;;13.07;100.00;101702.03;5037595;28;20531;-71
2023/05/21 05:26:51;;;;;;;10.23;8.38;;;;;;;13.08;100.00;101702.94;5036595;28;20021;-72
2023/05/21 05:29:16;;;;;;;8.82;7.95;;;;;;;13.13;100.00;101695.81;5034092;28;20539;-72
2023/05/21 05:31:41;;;;;;;12.27;8.77;;;;;;;13.18;100.00;101699.22;5029998;28;20029;-72
2023/05/21 05:34:06;;;;;;;11.15;8.23;;;;;;;13.26;100.00;101701.72;5040459;28;20668;-72
2023/05/21 05:36:32;;;;;;;10.48;8.15;;;;;;;13.32;100.00;101707.69;5032281;28;20044;-71
2023/05/21 05:38:57;;;;;;;9.90;7.88;;;;;;;13.35;100.00;101704.13;5032044;28;20392;-71
2023/05/21 05:41:23;;;;;;;9.32;7.57;;;;;;;13.39;100.00;101697.06;5033091;28;20033;-71
2023/05/21 05:43:48;;;;;;;9.80;7.72;;;;;;;13.53;100.00;101708.09;5033192;28;20032;-72
2023/05/21 05:46:13;;;;;;;10.68;7.60;;;;;;;13.63;100.00;101707.00;5031804;28;20054;-71
2023/05/21 05:48:38;;;;;;;9.27;8.25;;;;;;;13.72;99.92;101709.41;5038999;28;20148;-72
2023/05/21 05:51:04;;;;;;;10.02;8.43;;;;;;;13.76;100.00;101710.22;5032663;28;20055;-72
2023/05/21 05:53:31;;;;;;;11.18;8.45;;;;;;;13.80;100.00;101712.75;5033509;28;20033;-71
2023/05/21 05:55:56;;;;;;;9.52;8.52;;;;;;;13.86;99.99;101705.63;5032152;28;20033;-70
2023/05/21 05:58:21;;;;;;;8.80;7.90;;;;;;;13.95;100.00;101705.41;5031465;28;20358;-71
2023/05/21 06:00:47;;;;;;;8.55;7.55;;;;;;;14.04;99.64;101706.06;5034355;28;20064;-71
2023/05/21 06:03:12;;;;;;;10.55;8.45;;;;;;;14.11;98.20;101703.28;5032311;28;20112;-71
2023/05/21 06:05:38;;;;;;;9.73;8.35;;;;;;;14.22;99.66;101704.75;5033883;28;20481;-71
2023/05/21 06:08:03;;;;;;;10.80;8.20;;;;;;;14.27;97.44;101710.72;5042145;28;20086;-71
2023/05/21 06:10:28;;;;;;;10.40;8.43;;;;;;;14.37;99.34;101706.13;5040189;28;20385;-71
2023/05/21 06:12:54;;;;;;;10.27;8.45;;;;;;;14.51;98.27;101703.16;5031749;28;20029;-71
2023/05/21 06:15:19;;;;;;;9.63;8.25;;;;;;;14.52;95.98;101694.41;5030288;28;20064;-71
2023/05/21 06:17:44;;;;;;;11.38;8.20;;;;;;;14.64;97.31;101707.19;5041336;28;20437;-71
2023/05/21 06:20:11;;;;;;;9.27;8.35;;;;;;;14.65;95.16;101694.91;5033685;28;20045;-71
2023/05/21 06:22:36;;;;;;;10.23;8.82;;;;;;;14.74;94.21;101698.16;5031109;28;20104;-71
2023/05/21 06:25:01;;;;;;;12.77;9.10;;;;;;;14.81;93.46;101698.84;5033191;28;20100;-71
2023/05/21 06:27:27;;;;;;;10.05;8.40;;;;;;;14.94;93.54;101700.25;5032749;28;20026;-71
2023/05/21 06:29:52;;;;;;;10.82;8.82;;;;;;;15.00;93.12;101704.47;5028774;28;20034;-71
2023/05/21 06:32:17;;;;;;;9.73;8.40;;;;;;;15.05;92.62;101710.44;5032225;28;20022;-71
2023/05/21 06:34:42;;;;;;;12.93;9.10;;;;;;;15.06;93.46;101703.44;5031827;28;20029;-72
2023/05/21 06:37:08;;;;;;;10.60;8.93;;;;;;;15.08;91.67;101699.88;5031891;28;20033;-70
2023/05/21 06:39:33;;;;;;;11.35;8.90;;;;;;;15.15;91.73;101696.16;5025697;28;20454;-70
2023/05/21 06:41:58;;;;;;;11.15;9.10;;;;;;;15.10;91.76;101682.28;5033034;28;20438;-71
2023/05/21 06:44:24;;;;;;;12.70;8.65;;;;;;;15.31;91.48;101693.09;5029760;28;20045;-71
2023/05/21 06:46:49;;;;;;;13.10;9.05;;;;;;;15.38;91.24;101692.00;5035908;28;20032;-71
2023/05/21 06:49:15;;;;;;;10.07;8.57;;;;;;;15.62;91.67;101696.47;5031285;28;20590;-70
2023/05/21 06:51:40;;;;;;;12.25;9.30;;;;;;;15.70;90.20;101690.19;5038605;28;20033;-71
2023/05/21 06:54:05;;;;;;;10.52;8.75;;;;;;;15.75;87.72;101701.41;5036745;28;20022;-72
2023/05/21 06:56:31;;;;;;;13.48;8.75;;;;;;;15.73;87.65;101697.94;5044268;28;20041;-71
2023/05/21 06:58:56;;;;;;;12.18;9.02;;;;;;;15.80;89.19;101697.72;5043317;28;20029;-71
2023/05/21 07:01:22;;;;;;;9.65;8.35;;;;;;;15.96;89.11;101689.31;5028655;28;20382;-71
2023/05/21 07:03:48;;;;;;;9.68;8.68;;;;;;;16.07;88.67;101677.56;5033257;28;20025;-72
2023/05/21 07:06:13;;;;;;;11.27;9.15;;;;;;;16.18;87.39;101673.72;5035433;28;20603;-71
2023/05/21 07:08:38;;;;;;;10.20;8.95;;;;;;;16.30;85.66;101674.16;5035392;28;20038;-71
2023/05/21 07:11:04;;;;;;;12.20;8.88;;;;;;;16.35;86.04;101684.53;5046614;28;20044;-71
2023/05/21 07:13:29;;;;;;;11.77;9.57;;;;;;;16.33;84.71;101679.31;5033978;28;20515;-72
2023/05/21 07:15:58;;;;;;;11.30;8.80;;;;;;;16.39;86.26;101673.84;5029209;28;20488;-71
2023/05/21 07:18:23;;;;;;;10.63;9.40;;;;;;;16.55;84.54;101673.31;5033826;28;20553;-72
2023/05/21 07:20:48;;;;;;;10.60;9.07;;;;;;;16.54;83.27;101661.91;5038936;28;20111;-71
2023/05/21 07:23:13;;;;;;;11.20;9.50;;;;;;;16.50;83.80;101665.56;5041467;28;20385;-72
2023/05/21 07:25:39;;;;;;;12.27;9.48;;;;;;;16.62;84.16;101674.81;5038254;28;20029;-72
2023/05/21 07:28:04;;;;;;;10.60;8.70;;;;;;;16.82;84.40;101674.13;5037468;28;20462;-71
2023/05/21 07:30:29;;;;;;;12.07;9.70;;;;;;;16.84;83.18;101665.28;5031997;28;20029;-71
2023/05/21 07:32:55;;;;;;;10.68;8.82;;;;;;;16.91;84.00;101660.63;5039755;28;20473;-71
2023/05/21 07:35:20;;;;;;;13.52;9.07;;;;;;;17.02;80.78;101670.75;5032899;28;20029;-70
2023/05/21 07:37:46;;;;;;;11.20;8.93;;;;;;;16.96;81.79;101671.00;5035208;28;20026;-71
2023/05/21 07:40:12;;;;;;;12.07;10.35;;;;;;;17.00;83.03;101669.94;5028342;28;20029;-71
2023/05/21 07:42:37;;;;;;;11.27;9.48;;;;;;;17.02;83.04;101658.44;5033508;28;20026;-71
2023/05/21 07:45:03;;;;;;;11.52;9.68;;;;;;;17.16;81.87;101670.25;5034121;28;20080;-71
2023/05/21 07:47:28;;;;;;;11.32;9.25;;;;;;;17.31;79.97;101664.41;5033808;28;20044;-72
2023/05/21 07:49:53;;;;;;;11.18;9.48;;;;;;;17.35;81.62;101671.25;5043440;28;20028;-71
2023/05/21 07:52:19;;;;;;;11.90;9.63;;;;;;;17.45;80.34;101667.34;5034297;28;20033;-71
2023/05/21 07:54:44;;;;;;;10.80;9.25;;;;;;;17.68;83.00;101670.84;5033045;28;20040;-71
2023/05/21 07:57:09;;;;;;;11.00;9.80;;;;;;;17.74;78.09;101667.97;5033617;28;20025;-71
2023/05/21 07:59:35;;;;;;;12.57;10.18;;;;;;;17.61;79.42;101664.13;5031359;28;20040;-70
2023/05/21 08:02:00;;;;;;;12.05;10.13;;;;;;;17.66;78.32;101660.38;5032570;28;20057;-70
2023/05/21 08:04:25;;;;;;;11.13;9.77;;;;;;;17.82;79.09;101665.94;5032793;28;20044;-71
2023/05/21 08:06:51;;;;;;;15.45;9.63;;;;;;;17.99;79.97;101673.16;5033496;28;20029;-71
2023/05/21 08:09:18;;;;;;;13.68;11.02;;;;;;;18.05;76.30;101665.00;5033381;28;20081;-71
2023/05/21 08:11:44;;;;;;;12.55;10.32;;;;;;;18.16;79.76;101670.66;5033280;28;20044;-71
2023/05/21 08:14:10;;;;;;;14.57;10.40;;;;;;;18.27;77.53;101669.34;5033891;28;20029;-71
2023/05/21 08:16:35;;;;;;;13.20;10.40;;;;;;;18.26;78.94;101663.22;5033225;28;20025;-70
2023/05/21 08:19:00;;;;;;;12.25;10.07;;;;;;;18.19;76.11;101659.13;5024741;28;20478;-71
2023/05/21 08:21:26;;;;;;;14.77;10.60;;;;;;;18.08;78.44;101661.34;5022421;28;20025;-71
2023/05/21 08:23:51;;;;;;;12.48;10.57;;;;;;;18.13;79.24;101657.59;5016225;28;20086;-71
2023/05/21 08:26:16;;;;;;;12.00;10.20;;;;;;;18.24;77.37;101657.13;5022820;28;20060;-71
2023/05/21 08:28:42;;;;;;;12.32;10.98;;;;;;;18.40;76.88;101658.19;5030376;28;20504;-72
2023/05/21 08:31:07;;;;;;;12.18;9.65;;;;;;;18.48;76.96;101645.53;5033092;28;20017;-71
2023/05/21 08:33:37;;;;;;;11.57;9.88;;;;;;;18.68;78.33;101646.44;5035999;28;20026;-71
2023/05/21 08:36:06;;;;;;;14.02;10.80;;;;;;;18.73;74.87;101644.47;5032967;28;20033;-70
2023/05/21 08:38:31;;;;;;;11.85;9.80;;;;;;;18.85;79.10;101643.91;5032064;28;20028;-71
2023/05/21 08:40:58;;;;;;;14.48;10.50;;;;;;;18.90;75.90;101641.06;5033931;28;20942;-71
2023/05/21 08:43:26;;;;;;;14.23;10.82;;;;;;;18.92;75.67;101644.50;5033289;28;20021;-71
2023/05/21 08:45:54;;;;;;;14.98;10.80;;;;;;;18.90;74.69;101627.84;5033284;28;20461;-71
2023/05/21 08:48:21;;;;;;;14.50;10.93;;;;;;;19.03;72.78;101636.94;5033726;28;20059;-70
2023/05/21 08:50:48;;;;;;;12.82;10.57;;;;;;;19.07;76.25;101632.38;5024290;28;20032;-71
2023/05/21 08:53:13;;;;;;;14.18;10.98;;;;;;;19.08;74.44;101628.78;5032679;28;20026;-71
2023/05/21 08:55:41;;;;;;;14.50;11.05;;;;;;;19.11;74.59;101639.22;5032438;28;20037;-71
2023/05/21 08:58:06;;;;;;;15.18;10.85;;;;;;;19.11;73.15;101629.50;5037577;28;20040;-71
2023/05/21 09:00:32;;;;;;;15.30;11.73;;;;;;;19.09;71.04;101630.50;5029915;28;20108;-70
2023/05/21 09:02:59;;;;;;;14.23;11.55;;;;;;;19.21;73.04;101632.56;5031596;28;20369;-71
2023/05/21 09:05:26;;;;;;;14.77;11.85;;;;;;;19.36;72.04;101631.84;5030532;28;20397;-70
2023/05/21 09:07:59;;;;;;;13.73;11.60;;;;;;;19.48;72.73;101643.63;5027622;28;20028;-71
2023/05/21 09:10:33;;;;;;;13.20;10.90;;;;;;;19.48;70.51;101627.75;5030134;28;20056;-71
2023/05/21 09:12:59;;;;;;;14.65;10.70;;;;;;;19.62;70.88;101632.41;5030371;28;20044;-71
2023/05/21 09:15:25;;;;;;;14.00;11.23;;;;;;;19.70;71.09;101630.25;5039244;28;20155;-71
2023/05/21 09:17:51;;;;;;;16.15;13.48;;;;;;;19.66;71.19;101636.63;5028962;28;20029;-71
2023/05/21 09:20:16;;;;;;;14.85;11.45;;;;;;;19.87;72.42;101638.19;5039387;28;20066;-70
2023/05/21 09:22:47;;;;;;;14.43;12.15;;;;;;;20.02;70.92;101639.22;5044266;28;20029;-70
2023/05/21 09:25:14;;;;;;;18.83;11.82;;;;;;;20.02;70.48;101619.84;5031401;28;20048;-70
2023/05/21 09:27:40;;;;;;;12.13;10.88;;;;;;;20.13;68.14;101641.34;5032764;28;20120;-70
2023/05/21 09:30:13;;;;;;;12.23;10.60;;;;;;;20.04;67.31;101641.78;5032331;28;20109;-70
2023/05/21 09:32:39;;;;;;;16.45;11.60;;;;;;;19.70;69.19;101648.75;5039110;28;20040;-70
2023/05/21 09:35:14;;;;;;;13.98;11.30;;;;;;;19.50;71.37;101636.47;5036746;28;20038;-69
2023/05/21 09:37:46;;;;;;;14.35;10.80;;;;;;;19.41;71.53;101626.34;5039434;28;20082;-71
2023/05/21 09:40:14;;;;;;;12.60;10.15;;;;;;;19.46;73.43;101629.63;5029589;28;20069;-70
2023/05/21 09:42:40;;;;;;;17.33;11.88;;;;;;;19.34;71.48;101617.84;5032375;28;20120;-70
2023/05/21 09:45:10;;;;;;;16.65;11.70;;;;;;;19.58;73.03;101631.66;5030888;28;20063;-70
2023/05/21 09:47:43;;;;;;;12.95;11.35;;;;;;;19.85;71.92;101631.28;5032204;28;20132;-70
2023/05/21 09:50:12;;;;;;;13.00;11.05;;;;;;;19.93;70.08;101630.91;5038737;28;20050;-70
2023/05/21 09:52:38;;;;;;;12.10;10.90;;;;;;;19.96;69.23;101625.44;5039462;28;20030;-70
2023/05/21 09:55:05;;;;;;;12.27;11.05;;;;;;;20.19;73.07;101619.00;5033823;28;20041;-70
2023/05/21 09:57:30;;;;;;;14.63;11.45;;;;;;;20.51;69.01;101617.34;5032046;28;20026;-70
2023/05/21 09:59:57;;;;;;;12.13;10.82;;;;;;;20.79;67.68;101614.06;5030402;28;20064;-70
2023/05/21 10:02:27;;;;;;;16.70;11.75;;;;;;;20.92;65.94;101607.16;5037564;28;20104;-70
2023/05/21 10:04:59;;;;;;;17.38;10.90;;;;;;;20.93;69.75;101621.28;5038060;28;20067;-70
2023/05/21 10:07:25;;;;;;;15.38;11.48;;;;;;;21.00;70.09;101625.31;5031955;28;20034;-70
2023/05/21 10:09:56;;;;;;;14.15;11.30;;;;;;;21.00;65.73;101614.72;5041403;28;20456;-71
2023/05/21 10:12:26;;;;;;;14.48;11.02;;;;;;;21.09;65.85;101600.06;5036118;28;20541;-70
2023/05/21 10:15:02;;;;;;;16.33;12.05;;;;;;;21.21;67.13;101594.94;5027840;28;20029;-70
2023/05/21 10:17:29;;;;;;;13.30;11.45;;;;;;;21.57;64.94;101600.94;5035560;28;20080;-71
2023/05/21 10:19:59;;;;;;;14.35;10.93;;;;;;;21.73;65.23;101596.44;5030930;28;20017;-70
2023/05/21 10:22:34;;;;;;;13.80;11.38;;;;;;;21.78;63.11;101588.19;5037659;28;20669;-72
2023/05/21 10:25:02;;;;;;;15.02;12.02;;;;;;;21.65;63.88;101601.34;5025959;28;20025;-71
2023/05/21 10:27:29;;;;;;;14.38;11.65;;;;;;;21.61;64.77;101600.66;5017377;28;20052;-71
2023/05/21 10:29:56;;;;;;;13.90;11.23;;;;;;;21.77;63.28;101587.34;5029066;28;20025;-72
2023/05/21 10:32:22;;;;;;;14.60;12.10;;;;;;;21.84;61.20;101577.22;5029417;28;20030;-70
2023/05/21 10:34:47;;;;;;;13.18;11.10;;;;;;;21.90;63.86;101574.22;5030620;28;20381;-70
2023/05/21 10:37:15;;;;;;;14.73;10.88;;;;;;;22.16;62.78;101581.50;5028696;28;20108;-70
2023/05/21 10:39:44;;;;;;;12.95;11.55;;;;;;;22.34;62.03;101576.88;5032024;28;20030;-71
2023/05/21 10:42:28;;;;;;;15.02;11.55;;;;;;;22.51;62.75;101577.66;5027625;28;20100;-71
2023/05/21 10:45:07;;;;;;;17.00;12.32;;;;;;;22.42;62.17;101576.41;5031015;28;20096;-70
2023/05/21 10:47:41;;;;;;;15.25;13.07;;;;;;;22.54;61.30;101570.34;5031156;28;20099;-71
2023/05/21 10:50:15;;;;;;;16.15;13.20;;;;;;;22.54;57.02;101562.38;5029197;28;20076;-71
2023/05/21 10:53:06;;;;;;;14.70;12.77;;;;;;;22.82;61.85;101560.63;5031975;28;20068;-71
2023/05/21 10:55:39;;;;;;;17.95;12.80;;;;;;;23.22;60.09;101571.41;5027988;28;20582;-70
2023/05/21 10:58:28;;;;;;;15.27;12.03;;;;;;;23.58;59.22;101558.31;5029510;28;20515;-71
2023/05/21 11:00:54;;;;;;;14.65;13.02;;;;;;;23.77;56.66;101546.44;5028609;28;20152;-71
2023/05/21 11:03:21;;;;;;;14.18;12.02;;;;;;;23.82;56.70;101542.53;5032479;28;20066;-71
2023/05/21 11:05:56;;;;;;;15.82;13.32;;;;;;;24.10;56.44;101555.75;5029574;28;20477;-71
2023/05/21 11:08:34;;;;;;;13.35;11.95;;;;;;;24.38;58.12;101549.34;5042091;28;20457;-71
2023/05/21 11:11:00;;;;;;;15.10;11.95;;;;;;;24.59;53.88;101541.66;5029698;28;20733;-71
2023/05/21 11:13:47;;;;;;;15.38;12.43;;;;;;;24.47;54.83;101525.59;5032052;28;20044;-71